Time;durP1;ratioP1;P1;durP2;ratioP2;P2;SDS_P1;SDS_P2;PMS_P1;PMS_P2;Temp;Humidity;BMP_temperature;BMP_pressure;BME280_temperature;BME280_humidity;BME280_pressure;Samples;Min_cycle;Max_cycle;Signal;HPM_P1;HPM_P2
2023/12/28 00:01:40;;;;;;;186.65;7.10;;;;;;;22.03;58.48;99192.78;7294340;19;130082;-37
2023/12/28 00:04:05;;;;;;;290.40;10.93;;;;;;;22.02;58.80;99188.50;7294445;19;132086;-38
2023/12/28 00:06:30;;;;;;;272.23;10.33;;;;;;;22.02;58.63;99191.09;7296309;19;132475;-38
2023/12/28 00:08:56;;;;;;;165.75;6.43;;;;;;;22.02;59.18;99183.25;7295896;19;130297;-37
2023/12/28 00:11:21;;;;;;;177.83;6.70;;;;;;;22.00;58.65;99180.00;7293913;19;130549;-43
2023/12/28 00:13:46;;;;;;;296.07;10.93;;;;;;;21.84;59.01;99146.66;7287475;19;130665;-39
2023/12/28 00:16:11;;;;;;;266.77;9.93;;;;;;;22.01;59.19;99181.63;7293431;19;129183;-38
2023/12/28 00:18:37;;;;;;;254.83;9.87;;;;;;;21.95;58.80;99162.94;7292496;19;130328;-38
2023/12/28 00:21:02;;;;;;;165.65;6.25;;;;;;;21.98;58.85;99168.84;7295906;19;131145;-37
2023/12/28 00:23:28;;;;;;;280.58;10.80;;;;;;;21.88;59.07;99154.03;7293370;19;131750;-37
2023/12/28 00:25:53;;;;;;;202.00;7.60;;;;;;;22.02;58.76;99165.75;7295228;19;129375;-37
2023/12/28 00:28:18;;;;;;;141.55;5.40;;;;;;;22.01;58.65;99153.66;7293178;19;129405;-38
2023/12/28 00:30:44;;;;;;;152.15;5.72;;;;;;;22.00;58.51;99143.34;7293974;19;130679;-37
2023/12/28 00:33:09;;;;;;;271.65;9.88;;;;;;;22.00;58.93;99138.09;7293498;19;129124;-37
2023/12/28 00:35:34;;;;;;;235.57;9.10;;;;;;;21.98;59.03;99116.50;7294966;19;129675;-37
2023/12/28 00:37:59;;;;;;;192.23;7.00;;;;;;;22.01;58.75;99124.88;7295589;19;130438;-38
2023/12/28 00:40:25;;;;;;;232.80;9.00;;;;;;;21.97;58.80;99126.13;7294676;19;133037;-38
2023/12/28 00:42:50;;;;;;;279.67;10.45;;;;;;;22.02;58.58;99129.13;7295144;19;132031;-36
2023/12/28 00:45:16;;;;;;;209.27;7.87;;;;;;;21.96;58.65;99121.88;7297027;19;129363;-39
2023/12/28 00:47:43;;;;;;;91.87;3.87;;;;;;;22.00;59.09;99132.88;7292984;19;129073;-38
2023/12/28 00:50:11;;;;;;;252.73;9.98;;;;;;;22.02;59.03;99125.66;7293564;19;130943;-39
2023/12/28 00:52:37;;;;;;;236.20;8.77;;;;;;;22.02;58.81;99130.91;7293421;19;130680;-38
2023/12/28 00:55:02;;;;;;;233.63;8.60;;;;;;;21.90;58.34;99099.75;7296876;19;133310;-38
2023/12/28 00:57:28;;;;;;;238.82;9.13;;;;;;;22.01;58.91;99124.03;7291328;19;129378;-35
2023/12/28 00:59:53;;;;;;;222.68;8.30;;;;;;;21.98;58.95;99110.28;7293164;19;130314;-38
2023/12/28 01:02:18;;;;;;;217.40;8.00;;;;;;;22.03;58.53;99114.25;7292257;19;130771;-35
2023/12/28 01:04:44;;;;;;;189.47;7.17;;;;;;;21.84;59.03;99103.00;7295637;19;131822;-38
2023/12/28 01:07:09;;;;;;;201.03;7.33;;;;;;;21.88;58.61;99100.91;7293974;19;130504;-38
2023/12/28 01:09:34;;;;;;;266.57;10.40;;;;;;;22.02;58.07;99117.81;7290120;19;130145;-38
2023/12/28 01:12:00;;;;;;;239.18;8.73;;;;;;;22.03;58.88;99112.44;7290568;19;130753;-37
2023/12/28 01:14:25;;;;;;;153.90;5.67;;;;;;;22.03;58.65;99111.63;7293750;19;129360;-41
2023/12/28 01:16:51;;;;;;;187.10;7.07;;;;;;;21.95;58.83;99105.34;7294304;19;131358;-36
2023/12/28 01:19:16;;;;;;;376.33;14.18;;;;;;;22.01;58.42;99116.19;7293311;19;130344;-44
2023/12/28 01:21:41;;;;;;;225.60;8.77;;;;;;;22.02;58.42;99128.28;7292115;19;130318;-38
2023/12/28 01:24:07;;;;;;;209.38;7.82;;;;;;;22.01;57.93;99130.09;7290636;19;129586;-37
2023/12/28 01:26:34;;;;;;;287.27;11.10;;;;;;;22.02;58.07;99136.97;7292985;19;131348;-39
2023/12/28 01:29:02;;;;;;;199.40;7.18;;;;;;;22.00;58.27;99132.88;7292745;19;131305;-39
2023/12/28 01:31:28;;;;;;;238.65;8.70;;;;;;;22.00;58.39;99138.09;7290621;19;131227;-37
2023/12/28 01:33:53;;;;;;;174.40;6.53;;;;;;;22.00;58.34;99141.53;7291251;19;129786;-39
2023/12/28 01:36:20;;;;;;;221.13;7.93;;;;;;;21.98;58.31;99136.44;7294208;19;129512;-40
2023/12/28 01:38:45;;;;;;;253.45;9.38;;;;;;;21.96;58.35;99130.53;7292011;19;132625;-37
2023/12/28 01:41:12;;;;;;;172.43;6.60;;;;;;;21.96;58.43;99127.91;7293217;19;129827;-36
2023/12/28 01:43:38;;;;;;;155.63;6.03;;;;;;;21.96;58.21;99117.44;7289956;19;129658;-38
2023/12/28 01:46:04;;;;;;;195.50;7.60;;;;;;;21.94;58.19;99119.44;7293033;19;131093;-37
2023/12/28 01:48:30;;;;;;;198.38;7.35;;;;;;;21.94;58.40;99121.22;7291910;19;131482;-40
2023/12/28 01:50:56;;;;;;;218.10;8.32;;;;;;;21.93;58.50;99112.53;7292680;19;129858;-38
2023/12/28 01:53:22;;;;;;;164.80;6.27;;;;;;;21.93;58.04;99109.13;7292931;19;131990;-37
2023/12/28 01:55:48;;;;;;;228.43;8.35;;;;;;;21.92;58.37;99113.50;7289561;19;129747;-35
2023/12/28 01:58:13;;;;;;;252.98;9.55;;;;;;;21.89;58.53;99102.53;7293279;19;130263;-35
2023/12/28 02:00:40;;;;;;;172.03;6.77;;;;;;;21.91;58.67;99109.25;7291319;19;130872;-36
2023/12/28 02:03:06;;;;;;;200.02;7.38;;;;;;;21.91;58.45;99105.81;7291169;19;130207;-37
2023/12/28 02:05:33;;;;;;;189.95;7.07;;;;;;;21.90;58.11;99102.38;7292372;19;130223;-38
2023/12/28 02:07:58;;;;;;;247.55;8.88;;;;;;;21.87;58.19;99097.44;7291353;19;129899;-36
2023/12/28 02:10:24;;;;;;;199.73;7.28;;;;;;;21.88;58.69;99085.19;7289741;19;130848;-37
2023/12/28 02:12:49;;;;;;;197.40;7.13;;;;;;;21.87;58.33;99089.59;7290891;19;131142;-37
2023/12/28 02:15:16;;;;;;;170.50;6.47;;;;;;;21.87;58.47;99086.97;7293840;19;129389;-39
2023/12/28 02:17:58;;;;;;;312.37;12.33;;;;;;;21.85;59.14;99086.31;7290536;19;130182;-38
2023/12/28 02:20:25;;;;;;;265.05;10.50;;;;;;;21.88;58.54;99083.38;7290109;19;130869;-38
2023/12/28 02:22:51;;;;;;;146.45;5.60;;;;;;;21.84;58.81;99092.53;7291040;19;129820;-38
2023/12/28 02:25:16;;;;;;;205.43;7.67;;;;;;;21.83;58.34;99085.63;7290576;19;130270;-39
2023/12/28 02:27:43;;;;;;;205.50;7.77;;;;;;;21.83;58.40;99096.09;7291869;19;130147;-36
2023/12/28 02:30:10;;;;;;;300.92;11.30;;;;;;;21.83;59.13;99093.47;7286647;19;130223;-38
2023/12/28 02:32:56;;;;;;;207.73;8.00;;;;;;;21.81;59.16;99092.84;7290552;19;130950;-38
2023/12/28 02:35:34;;;;;;;147.27;5.47;;;;;;;21.78;58.95;99095.72;7292154;19;130725;-38
2023/12/28 02:38:02;;;;;;;;;;;;;;;21.81;60.19;99092.84;7292387;19;130188;-38
2023/12/28 02:40:30;;;;;;;209.68;7.68;;;;;;;21.64;58.53;99070.09;7291746;19;131180;-35
2023/12/28 02:42:55;;;;;;;248.98;9.38;;;;;;;21.79;59.24;99079.09;7296947;19;130414;-35
2023/12/28 02:45:21;;;;;;;103.57;4.20;;;;;;;21.62;58.73;99072.06;7299609;19;129443;-37
2023/12/28 02:47:46;;;;;;;258.47;9.87;;;;;;;21.76;59.50;99084.63;7297113;19;129035;-38
2023/12/28 02:50:11;;;;;;;261.58;10.40;;;;;;;21.58;59.34;99070.72;7295469;19;131106;-40
2023/12/28 02:52:37;;;;;;;305.48;11.30;;;;;;;21.72;59.34;99103.34;7297934;19;132374;-39
2023/12/28 02:55:03;;;;;;;201.32;7.63;;;;;;;21.69;59.93;99114.13;7299634;19;130113;-35
2023/12/28 02:57:28;;;;;;;227.90;8.50;;;;;;;21.66;59.16;99099.56;7298100;19;131836;-39
2023/12/28 02:59:54;;;;;;;239.57;8.87;;;;;;;21.61;59.50;99100.97;7297519;19;129560;-40
2023/12/28 03:02:19;;;;;;;222.90;7.95;;;;;;;21.55;59.33;99084.09;7296337;19;129563;-37
2023/12/28 03:04:44;;;;;;;193.37;7.40;;;;;;;21.56;59.98;99098.00;7298552;19;129772;-37
2023/12/28 03:07:10;;;;;;;210.37;7.97;;;;;;;21.53;60.19;99104.38;7297780;19;129078;-36
2023/12/28 03:09:38;;;;;;;220.85;7.97;;;;;;;21.49;60.34;99100.41;7294019;19;130117;-36
2023/12/28 03:12:04;;;;;;;202.80;7.55;;;;;;;21.51;59.70;99105.47;7298908;19;129158;-35
2023/12/28 03:14:29;;;;;;;185.47;6.87;;;;;;;21.46;60.31;99110.34;7291345;19;130038;-37
2023/12/28 03:16:54;;;;;;;270.73;9.87;;;;;;;21.43;60.11;99119.31;7293926;19;132284;-39
2023/12/28 03:19:20;;;;;;;335.37;12.57;;;;;;;21.42;59.91;99119.47;7294643;19;132293;-41
2023/12/28 03:21:45;;;;;;;225.57;8.85;;;;;;;21.43;60.34;99119.31;7297519;19;129774;-38
2023/12/28 03:24:11;;;;;;;185.30;6.97;;;;;;;21.43;60.12;99139.41;7295566;19;129235;-37
2023/12/28 03:26:39;;;;;;;208.55;7.78;;;;;;;21.37;59.92;99135.59;7295761;19;129849;-38
2023/12/28 03:29:08;;;;;;;259.23;9.43;;;;;;;21.39;60.23;99143.28;7295774;19;129523;-37
2023/12/28 03:31:33;;;;;;;222.32;8.00;;;;;;;21.42;59.85;99146.41;7295713;19;130770;-37
2023/12/28 03:33:59;;;;;;;202.33;7.43;;;;;;;21.42;60.29;99146.41;7292478;19;130677;-39
2023/12/28 03:36:25;;;;;;;203.90;7.18;;;;;;;21.39;60.03;99162.41;7291996;19;130564;-37
2023/12/28 03:38:50;;;;;;;285.40;10.47;;;;;;;21.34;60.41;99164.66;7295761;19;131047;-36
2023/12/28 03:41:17;;;;;;;189.97;7.07;;;;;;;21.38;60.64;99168.63;7298671;19;132204;-38
2023/12/28 03:43:42;;;;;;;183.02;6.80;;;;;;;21.37;60.26;99166.16;7295086;19;131258;-37
2023/12/28 03:46:08;;;;;;;233.52;8.65;;;;;;;21.35;60.07;99158.47;7296237;19;131036;-38
2023/12/28 03:48:35;;;;;;;249.10;9.33;;;;;;;21.26;60.54;99130.59;7295431;19;130459;-37
2023/12/28 03:51:00;;;;;;;116.18;4.35;;;;;;;21.36;60.65;99152.25;7296460;19;131354;-38
2023/12/28 03:53:25;;;;;;;218.25;8.27;;;;;;;21.37;60.64;99150.47;7296186;19;130456;-35
2023/12/28 03:55:51;;;;;;;243.00;9.33;;;;;;;21.34;60.01;99141.13;7294263;19;130083;-36
2023/12/28 03:58:16;;;;;;;197.05;7.35;;;;;;;21.34;60.32;99154.19;7296730;19;130272;-38
2023/12/28 04:00:41;;;;;;;159.77;5.90;;;;;;;21.33;59.96;99149.94;7294857;19;129611;-38
2023/12/28 04:03:06;;;;;;;242.20;8.80;;;;;;;21.15;60.55;99130.81;7296318;19;130406;-38
2023/12/28 04:05:32;;;;;;;217.43;8.02;;;;;;;21.34;60.19;99151.56;7295329;19;129217;-38
2023/12/28 04:07:57;;;;;;;196.90;7.43;;;;;;;21.33;60.33;99152.56;7297149;19;132080;-37
2023/12/28 04:10:31;;;;;;;221.47;8.17;;;;;;;21.29;60.89;99145.97;7291924;19;131366;-40
2023/12/28 04:12:57;;;;;;;239.90;9.32;;;;;;;21.33;60.78;99142.09;7294870;19;129756;-37
2023/12/28 04:15:23;;;;;;;328.70;12.60;;;;;;;21.30;60.66;99150.25;7295277;19;130154;-34
2023/12/28 04:17:48;;;;;;;240.45;8.93;;;;;;;21.31;60.07;99151.88;7296484;19;130200;-37
2023/12/28 04:20:14;;;;;;;208.03;8.53;;;;;;;21.31;60.27;99141.41;7295783;19;130112;-40
2023/12/28 04:22:39;;;;;;;196.77;7.22;;;;;;;21.30;60.36;99139.78;7293096;19;129206;-36
2023/12/28 04:25:04;;;;;;;245.07;8.73;;;;;;;21.32;60.63;99143.06;7294883;19;132632;-35
2023/12/28 04:27:30;;;;;;;249.13;9.30;;;;;;;21.30;60.93;99142.41;7296876;19;130403;-39
2023/12/28 04:29:55;;;;;;;265.00;10.48;;;;;;;21.28;60.56;99138.28;7293032;19;131122;-39
2023/12/28 04:32:20;;;;;;;217.33;8.03;;;;;;;21.30;60.30;99139.78;7294294;19;131311;-38
2023/12/28 04:34:46;;;;;;;177.00;6.75;;;;;;;21.25;60.68;99133.34;7294592;19;130208;-37
2023/12/28 04:37:11;;;;;;;213.95;8.05;;;;;;;21.33;60.65;99139.47;7295148;19;129456;-40
2023/12/28 04:39:37;;;;;;;209.27;7.77;;;;;;;21.41;60.40;99146.56;7294219;19;129560;-37
2023/12/28 04:42:03;;;;;;;217.50;8.17;;;;;;;21.79;59.44;99144.50;7294737;19;129388;-37
2023/12/28 04:44:28;;;;;;;285.70;10.32;;;;;;;22.21;58.06;99120.25;7295470;19;130571;-38
2023/12/28 04:46:53;;;;;;;210.13;8.20;;;;;;;22.99;56.01;99143.56;7293856;19;130414;-37
2023/12/28 04:49:19;;;;;;;186.30;6.97;;;;;;;23.69;53.77;99140.41;7290238;19;129471;-37
2023/12/28 04:51:44;;;;;;;280.45;10.23;;;;;;;24.61;50.94;99129.44;7292444;19;129858;-37
2023/12/28 04:54:10;;;;;;;231.40;8.40;;;;;;;25.02;50.10;99123.03;7293745;19;130926;-37
2023/12/28 04:56:35;;;;;;;215.40;8.20;;;;;;;25.27;49.37;99119.25;7293695;19;131915;-37
2023/12/28 04:59:00;;;;;;;167.27;6.10;;;;;;;25.55;49.14;99121.19;7293946;19;130727;-37
2023/12/28 05:01:26;;;;;;;433.95;16.90;;;;;;;25.95;47.73;99114.75;7288822;19;130197;-37
2023/12/28 05:03:51;;;;;;;295.33;11.37;;;;;;;26.07;47.58;99116.00;7290462;19;130783;-37
2023/12/28 05:06:16;;;;;;;235.33;8.80;;;;;;;26.36;46.19;99115.22;7295300;19;132231;-37
2023/12/28 05:08:42;;;;;;;258.63;9.77;;;;;;;26.32;46.92;99113.94;7288640;19;130536;-37
2023/12/28 05:11:07;;;;;;;372.10;14.47;;;;;;;26.36;46.70;99120.47;7291726;19;129193;-37
2023/12/28 05:13:34;;;;;;;157.93;6.03;;;;;;;26.41;46.20;99113.66;7292722;19;131182;-38
2023/12/28 05:16:00;;;;;;;;;;;;;;;26.34;46.44;99118.03;7294610;19;131291;-38
2023/12/28 05:18:26;;;;;;;284.42;10.65;;;;;;;26.45;46.32;99114.94;7293276;19;129331;-34
2023/12/28 05:20:51;;;;;;;202.17;8.07;;;;;;;26.52;46.81;99136.09;7292279;19;129648;-37
2023/12/28 05:23:17;;;;;;;201.37;7.50;;;;;;;26.47;46.05;99139.31;7292617;19;131236;-39
2023/12/28 05:25:42;;;;;;;192.43;7.77;;;;;;;26.39;45.95;99126.22;7293938;19;130250;-37
2023/12/28 05:28:07;;;;;;;251.60;9.30;;;;;;;26.47;46.95;99149.84;7293778;19;130091;-35
2023/12/28 05:30:33;;;;;;;168.57;6.13;;;;;;;26.53;46.07;99159.66;7291121;19;130545;-36
2023/12/28 05:32:58;;;;;;;186.23;7.50;;;;;;;26.35;47.08;99151.28;7291643;19;130047;-37
2023/12/28 05:35:23;;;;;;;231.60;8.43;;;;;;;26.25;46.58;99161.28;7293260;19;130464;-38
2023/12/28 05:37:49;;;;;;;299.10;11.33;;;;;;;26.27;46.52;99169.81;7292784;19;130215;-38
2023/12/28 05:40:14;;;;;;;246.67;10.10;;;;;;;26.09;47.27;99169.34;7294433;19;131895;-37
2023/12/28 05:42:40;;;;;;;162.40;6.23;;;;;;;25.90;47.78;99176.91;7290864;19;130527;-37
2023/12/28 05:45:05;;;;;;;179.73;6.83;;;;;;;25.51;48.52;99142.78;7292478;19;130346;-37
2023/12/28 05:47:31;;;;;;;209.40;7.63;;;;;;;25.49;49.34;99173.72;7294399;19;132233;-38
2023/12/28 05:49:56;;;;;;;235.40;9.30;;;;;;;25.36;49.00;99178.75;7291647;19;131097;-38
2023/12/28 05:52:21;;;;;;;219.77;8.17;;;;;;;25.12;50.09;99187.56;7290875;19;132634;-36
2023/12/28 05:54:47;;;;;;;156.53;6.03;;;;;;;24.91;50.20;99197.84;7290385;19;130478;-36
2023/12/28 05:57:13;;;;;;;165.25;5.93;;;;;;;24.64;51.26;99177.25;7293283;19;129558;-38
2023/12/28 05:59:41;;;;;;;210.70;7.73;;;;;;;24.56;51.34;99197.47;7292100;19;130047;-39
2023/12/28 06:02:07;;;;;;;154.10;5.88;;;;;;;24.40;51.88;99204.38;7292223;19;132141;-38
2023/12/28 06:04:33;;;;;;;265.10;10.07;;;;;;;24.20;52.54;99200.47;7291905;19;130701;-39
2023/12/28 06:06:59;;;;;;;212.65;8.25;;;;;;;23.98;52.63;99179.31;7292603;19;129431;-37
2023/12/28 06:09:24;;;;;;;223.20;8.77;;;;;;;23.91;53.08;99194.88;7290178;19;129485;-38
2023/12/28 06:11:49;;;;;;;201.57;7.50;;;;;;;23.68;53.79;99177.31;7288011;19;130085;-37
2023/12/28 06:14:15;;;;;;;239.83;8.87;;;;;;;23.64;53.69;99205.69;7290795;19;130887;-38
2023/12/28 06:16:40;;;;;;;262.73;10.20;;;;;;;23.51;54.27;99212.38;7290112;19;130067;-38
2023/12/28 06:19:05;;;;;;;196.83;7.57;;;;;;;23.42;54.87;99201.03;7290911;19;129975;-41
2023/12/28 06:21:31;;;;;;;147.97;5.63;;;;;;;23.35;54.78;99194.00;7284389;19;130200;-37
2023/12/28 06:23:56;;;;;;;278.70;10.63;;;;;;;23.19;54.88;99202.59;7280101;19;130554;-37
2023/12/28 06:26:22;;;;;;;235.73;9.17;;;;;;;23.00;55.26;99187.13;7284830;19;130871;-38
2023/12/28 06:28:47;;;;;;;154.48;5.85;;;;;;;23.03;56.00;99200.75;7286411;19;131457;-37
2023/12/28 06:31:13;;;;;;;215.17;8.27;;;;;;;22.93;55.88;99192.19;7286594;19;131007;-37
2023/12/28 06:33:38;;;;;;;261.23;9.63;;;;;;;22.90;55.84;99196.91;7286453;19;130331;-37
2023/12/28 06:36:07;;;;;;;268.03;10.47;;;;;;;22.77;56.75;99200.00;7290484;19;129663;-37
2023/12/28 06:38:33;;;;;;;163.23;6.15;;;;;;;22.68;56.99;99192.22;7288374;19;130163;-37
2023/12/28 06:40:58;;;;;;;227.63;8.97;;;;;;;22.61;57.24;99196.47;7289699;19;130469;-37
2023/12/28 06:43:23;;;;;;;285.90;10.60;;;;;;;22.57;56.94;99200.34;7289225;19;129801;-37
2023/12/28 06:45:49;;;;;;;237.20;8.70;;;;;;;22.50;57.44;99200.13;7285597;19;129987;-38
2023/12/28 06:48:14;;;;;;;161.10;6.15;;;;;;;22.50;57.24;99197.50;7289993;19;132625;-37
2023/12/28 06:50:39;;;;;;;310.33;11.67;;;;;;;22.47;57.49;99199.63;7281720;19;132777;-41
2023/12/28 06:53:05;;;;;;;321.55;12.30;;;;;;;22.43;57.08;99206.16;7284752;19;129916;-37
2023/12/28 06:55:30;;;;;;;234.70;8.63;;;;;;;22.21;57.95;99170.81;7284366;19;129818;-37
2023/12/28 06:57:56;;;;;;;269.40;10.47;;;;;;;22.39;57.52;99192.53;7281818;19;133182;-37
2023/12/28 07:00:21;;;;;;;289.13;11.10;;;;;;;22.50;56.98;99202.75;7288724;19;130984;-37
2023/12/28 07:02:46;;;;;;;365.63;14.45;;;;;;;22.60;56.90;99205.28;7285207;19;130292;-37
2023/12/28 07:05:13;;;;;;;190.43;7.03;;;;;;;22.75;56.47;99203.72;7288758;19;130156;-38
2023/12/28 07:07:39;;;;;;;;;;;;;;;23.08;55.50;99214.22;7290654;19;129217;-37
2023/12/28 07:10:05;;;;;;;316.83;11.90;;;;;;;23.24;55.32;99213.44;7276695;19;130020;-38
2023/12/28 07:12:30;;;;;;;133.77;4.97;;;;;;;23.47;54.66;99219.75;7278919;19;131294;-37
2023/12/28 07:14:55;;;;;;;264.13;9.83;;;;;;;23.72;54.13;99234.56;7284006;19;130892;-37
2023/12/28 07:17:20;;;;;;;203.25;7.28;;;;;;;23.84;53.09;99241.16;7280394;19;130268;-38
2023/12/28 07:19:46;;;;;;;178.20;6.50;;;;;;;23.98;53.08;99258.09;7287380;19;130883;-37
2023/12/28 07:22:11;;;;;;;216.57;8.17;;;;;;;24.20;52.93;99247.75;7282854;19;130438;-37
2023/12/28 07:24:37;;;;;;;204.03;8.07;;;;;;;24.38;51.84;99248.41;7287874;19;132503;-37
2023/12/28 07:27:02;;;;;;;427.87;17.00;;;;;;;24.46;51.94;99232.63;7287627;19;131015;-37
2023/12/28 07:29:27;;;;;;;213.55;8.07;;;;;;;24.70;50.99;99217.81;7293327;19;131318;-37
2023/12/28 07:31:54;;;;;;;270.75;10.20;;;;;;;24.72;50.71;99226.34;7294974;19;129554;-37
2023/12/28 07:34:19;;;;;;;252.32;9.27;;;;;;;24.90;50.26;99235.69;7285631;19;129424;-37
2023/12/28 07:36:44;;;;;;;272.40;9.93;;;;;;;24.80;50.90;99218.44;7294454;19;129540;-37
2023/12/28 07:39:10;;;;;;;243.43;9.20;;;;;;;24.96;50.45;99245.50;7295114;19;131739;-38
2023/12/28 07:41:36;;;;;;;227.03;8.57;;;;;;;25.05;50.44;99241.03;7294293;19;130633;-37
2023/12/28 07:44:01;;;;;;;238.43;9.23;;;;;;;25.13;50.21;99233.13;7295885;19;131606;-37
2023/12/28 07:46:27;;;;;;;271.43;10.10;;;;;;;24.97;50.20;99228.75;7295550;19;129648;-37
2023/12/28 07:48:52;;;;;;;175.87;6.83;;;;;;;24.91;50.55;99234.69;7296299;19;130693;-37
2023/12/28 07:51:17;;;;;;;214.90;8.07;;;;;;;24.83;50.30;99229.44;7295153;19;130282;-37
2023/12/28 07:53:43;;;;;;;257.80;9.77;;;;;;;24.67;50.85;99207.59;7293944;19;129612;-37
2023/12/28 07:56:08;;;;;;;239.63;9.30;;;;;;;24.68;50.86;99232.94;7296075;19;132106;-37
2023/12/28 07:58:34;;;;;;;213.83;8.13;;;;;;;24.58;51.59;99240.19;7295794;19;131718;-40
2023/12/28 08:01:00;;;;;;;229.80;8.97;;;;;;;24.51;51.74;99242.63;7294917;19;130403;-39
2023/12/28 08:03:25;;;;;;;260.07;9.80;;;;;;;24.42;51.98;99238.38;7294745;19;130316;-35
2023/12/28 08:05:50;;;;;;;160.17;6.03;;;;;;;24.36;52.29;99242.47;7296063;19;129649;-37
2023/12/28 08:08:16;;;;;;;212.47;7.80;;;;;;;24.12;52.24;99208.38;7295177;19;129516;-39
2023/12/28 08:10:41;;;;;;;201.73;7.53;;;;;;;24.19;52.80;99235.63;7293641;19;129601;-40
2023/12/28 08:13:06;;;;;;;278.67;10.93;;;;;;;24.15;52.94;99254.47;7293570;19;133561;-38
2023/12/28 08:15:32;;;;;;;249.80;9.67;;;;;;;24.13;52.45;99257.28;7290730;19;131709;-38
2023/12/28 08:17:57;;;;;;;203.43;7.97;;;;;;;24.07;52.80;99255.31;7294751;19;130134;-38
2023/12/28 08:20:22;;;;;;;262.43;10.00;;;;;;;24.08;52.64;99270.06;7289696;19;131075;-37
2023/12/28 08:22:48;;;;;;;147.90;5.40;;;;;;;23.99;53.21;99259.72;7295973;19;129572;-38
2023/12/28 08:25:13;;;;;;;367.17;14.40;;;;;;;23.86;53.15;99270.69;7293290;19;130427;-38
2023/12/28 08:27:39;;;;;;;212.53;7.97;;;;;;;23.81;53.96;99259.84;7299681;19;130934;-42
2023/12/28 08:30:06;;;;;;;302.13;12.27;;;;;;;23.83;54.01;99257.06;7293100;19;130247;-42
2023/12/28 08:32:32;;;;;;;250.57;9.38;;;;;;;23.74;53.35;99261.47;7299946;19;130252;-39
2023/12/28 08:34:57;;;;;;;234.00;8.77;;;;;;;23.50;54.04;99232.56;7297852;19;130456;-38
2023/12/28 08:37:22;;;;;;;166.73;6.30;;;;;;;23.54;54.18;99254.88;7296461;19;130666;-39
2023/12/28 08:39:47;;;;;;;224.07;8.57;;;;;;;23.47;54.57;99253.84;7294438;19;131117;-39
2023/12/28 08:42:13;;;;;;;300.70;11.60;;;;;;;23.48;54.69;99265.19;7294402;19;129835;-39
2023/12/28 08:44:38;;;;;;;84.53;3.33;;;;;;;23.40;54.85;99268.63;7295333;19;129603;-39
2023/12/28 08:47:04;;;;;;;153.48;6.22;;;;;;;23.35;55.38;99278.75;7293954;19;129425;-38
2023/12/28 08:49:29;;;;;;;287.75;10.73;;;;;;;23.26;55.46;99279.66;7294111;19;130610;-38
2023/12/28 08:51:54;;;;;;;175.40;6.73;;;;;;;23.23;55.26;99280.81;7295731;19;132337;-38
2023/12/28 08:54:20;;;;;;;228.57;8.73;;;;;;;23.16;55.19;99292.06;7292004;19;130889;-37
2023/12/28 08:56:45;;;;;;;221.83;8.37;;;;;;;23.18;55.90;99298.00;7292582;19;130166;-39
2023/12/28 08:59:10;;;;;;;274.57;10.43;;;;;;;23.15;55.18;99286.00;7294301;19;129642;-39
2023/12/28 09:01:36;;;;;;;210.90;8.43;;;;;;;22.97;55.61;99266.09;7292817;19;129364;-38
2023/12/28 09:04:01;;;;;;;234.95;8.60;;;;;;;23.06;55.45;99292.19;7288846;19;129744;-38
2023/12/28 09:06:26;;;;;;;253.00;9.50;;;;;;;23.06;55.77;99301.84;7291156;19;131584;-38
2023/12/28 09:08:53;;;;;;;253.07;9.67;;;;;;;23.02;55.40;99284.81;7292614;19;130609;-38
2023/12/28 09:11:19;;;;;;;215.13;8.30;;;;;;;23.01;56.10;99288.41;7291595;19;130182;-36
2023/12/28 09:13:45;;;;;;;104.27;3.97;;;;;;;22.86;55.67;99261.09;7291631;19;130386;-38
2023/12/28 09:16:12;;;;;;;229.60;8.73;;;;;;;22.97;56.36;99287.09;7293597;19;130582;-38
2023/12/28 09:18:38;;;;;;;314.85;12.13;;;;;;;22.95;55.67;99275.91;7292616;19;131260;-37
2023/12/28 09:21:05;;;;;;;195.27;7.77;;;;;;;22.93;55.72;99286.56;7293916;19;131338;-38
2023/12/28 09:23:34;;;;;;;206.93;7.80;;;;;;;22.94;55.61;99287.41;7293414;19;133040;-38
2023/12/28 09:26:01;;;;;;;184.23;7.18;;;;;;;22.97;56.06;99300.19;7293686;19;131133;-38
2023/12/28 09:28:26;;;;;;;319.98;12.00;;;;;;;22.98;56.32;99299.19;7291527;19;129217;-37
2023/12/28 09:30:52;;;;;;;199.38;7.53;;;;;;;22.94;56.25;99290.03;7291091;19;130176;-37
2023/12/28 09:33:17;;;;;;;207.20;8.02;;;;;;;22.95;55.90;99292.47;7292832;19;130747;-39
2023/12/28 09:35:42;;;;;;;225.97;8.63;;;;;;;23.00;55.95;99295.47;7294071;19;130134;-37
2023/12/28 09:38:08;;;;;;;190.97;7.43;;;;;;;22.85;56.01;99275.22;7294064;19;131325;-37
2023/12/28 09:40:36;;;;;;;199.10;7.33;;;;;;;22.87;56.20;99257.53;7292814;19;131505;-37
2023/12/28 09:43:22;;;;;;;188.98;7.32;;;;;;;22.99;56.41;99285.94;7292992;19;130047;-38
2023/12/28 09:45:48;;;;;;;233.27;8.93;;;;;;;23.03;55.72;99292.53;7293026;19;131877;-37
2023/12/28 09:48:17;;;;;;;238.57;9.45;;;;;;;23.10;56.11;99292.72;7292632;19;131093;-39
2023/12/28 09:50:45;;;;;;;282.10;10.57;;;;;;;23.14;55.51;99288.78;7289992;19;130970;-38
2023/12/28 09:53:11;;;;;;;191.60;7.82;;;;;;;23.20;55.12;99290.81;7292117;19;129455;-38
2023/12/28 09:55:37;;;;;;;194.45;7.53;;;;;;;23.22;55.42;99286.22;7293247;19;131190;-37
2023/12/28 09:58:05;;;;;;;183.60;6.93;;;;;;;23.26;54.65;99282.28;7293461;19;132111;-38
2023/12/28 10:00:31;;;;;;;214.43;8.13;;;;;;;23.27;55.31;99285.78;7292711;19;129067;-37
2023/12/28 10:02:56;;;;;;;196.00;7.27;;;;;;;23.36;55.18;99283.03;7291523;19;129660;-39
2023/12/28 10:05:22;;;;;;;135.73;5.40;;;;;;;23.40;55.28;99284.34;7292470;19;130297;-39
2023/12/28 10:07:47;;;;;;;269.97;10.20;;;;;;;23.43;55.09;99283.22;7290814;19;131758;-38
2023/12/28 10:10:13;;;;;;;292.47;12.17;;;;;;;23.39;54.32;99280.06;7289501;19;132244;-37
2023/12/28 10:12:38;;;;;;;248.87;9.33;;;;;;;23.23;54.96;99261.63;7289714;19;129435;-38
2023/12/28 10:15:05;;;;;;;161.07;6.03;;;;;;;23.40;55.06;99284.34;7288913;19;130943;-38
2023/12/28 10:17:35;;;;;;;216.25;7.85;;;;;;;23.37;54.66;99289.09;7286899;19;132558;-37
2023/12/28 10:20:05;;;;;;;270.60;10.43;;;;;;;23.39;55.41;99287.16;7289541;19;130185;-37
2023/12/28 10:22:31;;;;;;;199.80;7.70;;;;;;;23.38;54.96;99281.06;7290362;19;129236;-39
2023/12/28 10:24:59;;;;;;;259.13;9.82;;;;;;;23.45;54.97;99271.59;7289311;19;132215;-38
2023/12/28 10:27:25;;;;;;;238.38;9.30;;;;;;;23.39;54.65;99290.56;7289695;19;131975;-39
2023/12/28 10:29:53;;;;;;;253.63;9.73;;;;;;;23.46;54.81;99288.97;7289007;19;130324;-41
2023/12/28 10:32:19;;;;;;;265.73;10.30;;;;;;;23.55;54.69;99288.00;7289961;19;129548;-41
2023/12/28 10:34:44;;;;;;;149.13;5.40;;;;;;;23.53;54.29;99279.47;7291922;19;131705;-38
2023/12/28 10:37:11;;;;;;;205.10;7.90;;;;;;;23.55;54.82;99285.38;7286894;19;130321;-40
2023/12/28 10:39:40;;;;;;;292.90;11.13;;;;;;;23.62;54.32;99278.50;7289244;19;129533;-38
2023/12/28 10:42:12;;;;;;;208.57;8.15;;;;;;;23.51;54.04;99268.31;7289901;19;130910;-37
2023/12/28 10:44:40;;;;;;;147.52;5.60;;;;;;;23.62;54.51;99278.50;7291133;19;131111;-37
2023/12/28 10:47:10;;;;;;;230.05;8.77;;;;;;;23.67;54.56;99281.47;7288017;19;130056;-37
2023/12/28 10:49:37;;;;;;;231.20;8.73;;;;;;;23.71;53.79;99272.31;7288624;19;130358;-38
2023/12/28 10:52:07;;;;;;;247.50;9.25;;;;;;;23.65;53.93;99270.31;7288261;19;129303;-37
2023/12/28 10:54:44;;;;;;;234.77;8.68;;;;;;;23.66;54.50;99279.00;7289606;19;132069;-38
2023/12/28 10:57:14;;;;;;;230.50;8.75;;;;;;;23.61;54.33;99276.88;7287646;19;130433;-37
2023/12/28 11:00:11;;;;;;;201.82;7.60;;;;;;;23.56;54.16;99268.66;7288838;19;134584;-37
2023/12/28 11:02:51;;;;;;;225.02;8.57;;;;;;;23.58;54.11;99261.44;7294028;19;130634;-37
2023/12/28 11:05:19;;;;;;;223.82;8.48;;;;;;;23.41;54.88;99249.25;7294804;19;130951;-37